Air Supply — WDE6069 — position and weather

sailwx.info

Track history (hours):
 
Tides and Currents Weather Stations Pressure Air Temp Water Temp Dewpoint Dewpoint Depression Visibility Wind Speed Wind Dir Waves Ship Positions

Air Supply

Owner: Knowles, Clay A, Fruita, CO. More information available from US FCC via Universal Licensing System and Coast Guard Vessel Documentation Center.

Last reported at 2018-Jun-20 03:54 UTC. Time now 2018-Jun-20 08:57 UTC.
Position N 29°51' W 091°55'.

Length 36 m; draft 3 m.

Type: Towing. MMSI: 367375720.

Date/timePositionNaut miles runAvg speedWind from/ knotsBaromVisibWave heightAir tempDewpointWater temp
2018-Jun-20 03:54N 29°51' W 091°55'2 3.8
2018-Jun-20 03:30N 29°51' W 091°56'2 4.9
2018-Jun-20 03:00N 29°50' W 091°59'3 5.0
2018-Jun-20 02:31N 29°49' W 092°02'2 4.6
2018-Jun-20 02:01N 29°48' W 092°04'2 3.7
2018-Jun-20 01:31N 29°48' W 092°06'2 3.5
2018-Jun-20 01:01N 29°47' W 092°08'2 4.0
2018-Jun-20 00:30N 29°47' W 092°10'2 4.0
2018-Jun-20 00:01N 29°47' W 092°12'0 0.2
2018-Jun-19 23:31N 29°47' W 092°12'2 3.1
2018-Jun-19 23:00N 29°48' W 092°14'1 1.3
2018-Jun-19 22:30N 29°48' W 092°15'0 0.1
2018-Jun-19 22:00N 29°48' W 092°15'0 0.0
2018-Jun-19 21:31N 29°48' W 092°15'0 0.0
2018-Jun-19 21:01N 29°48' W 092°15'0 0.0
2018-Jun-19 20:31N 29°48' W 092°15'0 0.0
2018-Jun-19 20:00N 29°48' W 092°15'0 0.1
2018-Jun-19 19:30N 29°48' W 092°15'0 0.2
2018-Jun-19 18:59N 29°48' W 092°15'0 0.1
2018-Jun-19 18:30N 29°48' W 092°15'0 0.1
2018-Jun-19 18:01N 29°48' W 092°15'0 0.2
2018-Jun-19 17:31N 29°48' W 092°15'1 1.9
2018-Jun-19 17:00N 29°49' W 092°16'0 0.2
2018-Jun-19 16:30N 29°49' W 092°16'0 0.0
2018-Jun-19 16:00N 29°49' W 092°16'0 0.0
2018-Jun-19 15:30N 29°49' W 092°16'0 0.0
2018-Jun-19 15:00N 29°49' W 092°16'0 0.0
2018-Jun-19 14:30N 29°49' W 092°16'0 0.2
2018-Jun-19 14:00N 29°49' W 092°16'1 2.0
2018-Jun-19 13:30N 29°49' W 092°17'2 3.7
2018-Jun-19 13:00N 29°50' W 092°19'2 4.3
2018-Jun-19 12:30N 29°51' W 092°21'3 4.0
2018-Jun-19 11:49N 29°53' W 092°23'26 4.6
2018-Jun-19 06:14N 29°57' W 092°53'8 4.1
2018-Jun-19 04:20N 29°56' W 093°01'2 4.7
2018-Jun-19 04:00N 29°56' W 093°03'2 4.4
2018-Jun-19 03:30N 29°56' W 093°06'2 4.6
2018-Jun-19 03:00N 29°56' W 093°08'2 4.1
2018-Jun-19 02:30N 29°57' W 093°10'2 4.3
2018-Jun-19 02:00N 29°59' W 093°12'2 3.9
2018-Jun-19 01:30N 30°00' W 093°13'2 3.6
2018-Jun-19 01:00N 30°02' W 093°14'1 3.0
2018-Jun-19 00:30N 30°03' W 093°16'2 3.0
2018-Jun-19 00:00N 30°04' W 093°16'2 3.3
2018-Jun-18 23:30N 30°05' W 093°18'0 0.6
2018-Jun-18 23:00N 30°05' W 093°18'1 1.4
2018-Jun-18 22:30N 30°06' W 093°18'0 0.9
2018-Jun-18 22:00N 30°06' W 093°19'0 0.0
2018-Jun-18 21:27N 30°06' W 093°19'0 0.0
2018-Jun-18 21:00N 30°06' W 093°19'0 0.0
2018-Jun-18 20:30N 30°06' W 093°19'0 0.0
2018-Jun-18 20:00N 30°06' W 093°19'0 0.0
2018-Jun-18 19:30N 30°06' W 093°19'0 0.0
2018-Jun-18 19:00N 30°06' W 093°19'0 0.0
2018-Jun-18 18:30N 30°06' W 093°19'0 0.0
2018-Jun-18 18:00N 30°06' W 093°19'0 0.0
2018-Jun-18 17:30N 30°06' W 093°19'0 0.0
2018-Jun-18 16:59N 30°06' W 093°19'0 0.0
2018-Jun-18 16:30N 30°06' W 093°19'0 0.0
2018-Jun-18 16:00N 30°06' W 093°19'0 0.0
2018-Jun-18 15:31N 30°06' W 093°19'0 0.0
2018-Jun-18 15:00N 30°06' W 093°19'0 0.0
2018-Jun-18 14:30N 30°06' W 093°19'0 0.0
2018-Jun-18 14:00N 30°06' W 093°19'0 0.0
2018-Jun-18 13:30N 30°06' W 093°19'0 0.0
2018-Jun-18 13:00N 30°06' W 093°19'0 0.0
2018-Jun-18 12:30N 30°06' W 093°19'0 0.0
2018-Jun-18 12:01N 30°06' W 093°19'0 0.0
2018-Jun-18 11:30N 30°06' W 093°19'0 0.0
2018-Jun-18 11:00N 30°06' W 093°19'0 0.0
2018-Jun-18 10:30N 30°06' W 093°19'0 0.1
2018-Jun-18 10:00N 30°06' W 093°19'0 0.0
2018-Jun-18 09:30N 30°06' W 093°19'0 0.0
2018-Jun-18 09:00N 30°06' W 093°19'0 0.0
2018-Jun-18 08:28N 30°06' W 093°19'0 0.0
2018-Jun-18 08:00N 30°06' W 093°19'0 0.0
2018-Jun-18 07:30N 30°06' W 093°19'0 0.4
2018-Jun-18 07:00N 30°06' W 093°19'2 3.7
2018-Jun-18 06:30N 30°05' W 093°20'1 2.9
2018-Jun-18 06:00N 30°04' W 093°22'1 2.7
2018-Jun-18 05:30N 30°04' W 093°23'0 0.5
2018-Jun-18 05:01N 30°04' W 093°24'0 0.2
2018-Jun-18 04:30N 30°04' W 093°24'0 0.0
2018-Jun-18 04:00N 30°04' W 093°24'0 0.0
2018-Jun-18 03:30N 30°04' W 093°24'0 0.0
2018-Jun-18 03:00N 30°04' W 093°24'0 0.0
2018-Jun-18 02:30N 30°04' W 093°24'0 0.0
2018-Jun-18 01:59N 30°04' W 093°24'0 0.0
2018-Jun-18 01:30N 30°04' W 093°24'0 0.0
2018-Jun-18 01:00N 30°04' W 093°24'0 0.0
2018-Jun-18 00:30N 30°04' W 093°24'0 0.0
2018-Jun-17 23:58N 30°04' W 093°24'0 0.1
2018-Jun-17 23:30N 30°04' W 093°24'0 0.5
2018-Jun-17 23:00N 30°04' W 093°24'0 0.7
2018-Jun-17 22:30N 30°04' W 093°24'0 0.7
2018-Jun-17 22:01N 30°04' W 093°25'0 0.9
2018-Jun-17 21:30N 30°04' W 093°25'0 0.3
2018-Jun-17 21:00N 30°04' W 093°26'0 0.0
2018-Jun-17 20:31N 30°04' W 093°26'0 0.0
2018-Jun-17 20:00N 30°04' W 093°26'0 0.7
2018-Jun-17 19:30N 30°04' W 093°26'1 2.3
2018-Jun-17 19:00N 30°04' W 093°27'0 0.0
2018-Jun-17 18:30N 30°04' W 093°27'0 0.0
2018-Jun-17 18:00N 30°04' W 093°27'0 0.1
2018-Jun-17 17:30N 30°04' W 093°27'0 0.9
2018-Jun-17 17:00N 30°04' W 093°28'0 0.3
2018-Jun-17 16:30N 30°04' W 093°28'0 0.1
2018-Jun-17 16:00N 30°04' W 093°28'0 0.1
2018-Jun-17 15:30N 30°04' W 093°28'0 0.3
2018-Jun-17 15:00N 30°04' W 093°28'0 0.9
2018-Jun-17 14:30N 30°04' W 093°29'0 0.0
2018-Jun-17 14:00N 30°04' W 093°29'1 1.5
2018-Jun-17 13:29N 30°04' W 093°30'2 4.2
2018-Jun-17 13:00N 30°04' W 093°32'2 4.4
2018-Jun-17 12:27N 30°04' W 093°35'2 4.2
2018-Jun-17 12:00N 30°04' W 093°37'2 4.3
2018-Jun-17 11:29N 30°03' W 093°40'2 4.4
2018-Jun-17 11:00N 30°03' W 093°42'1 2.9
2018-Jun-17 10:30N 30°03' W 093°44'1 2.9
2018-Jun-17 10:00N 30°01' W 093°44'2 4.5
2018-Jun-17 09:30N 29°60' W 093°46'2 4.9
2018-Jun-17 09:00N 29°59' W 093°49'2 4.8
2018-Jun-17 08:30N 29°58' W 093°51'3 5.1
2018-Jun-17 08:00N 29°56' W 093°53'2 4.5
2018-Jun-17 07:30N 29°54' W 093°54'2 3.4
2018-Jun-17 07:00N 29°53' W 093°56'2 4.3
2018-Jun-17 06:30N 29°51' W 093°57'2 4.1
2018-Jun-17 06:00N 29°49' W 093°59'2 4.1
2018-Jun-17 05:30N 29°48' W 094°00'3 5.1
2018-Jun-17 05:00N 29°46' W 094°03'2 4.9
2018-Jun-17 04:30N 29°45' W 094°05'2 4.7
2018-Jun-17 04:00N 29°43' W 094°07'2 4.5
2018-Jun-17 03:30N 29°42' W 094°09'2 4.2
2018-Jun-17 03:00N 29°41' W 094°11'2 3.0
2018-Jun-17 02:30N 29°40' W 094°13'2 3.2
2018-Jun-17 02:00N 29°40' W 094°14'2 4.3
2018-Jun-17 01:30N 29°39' W 094°17'2 4.2
2018-Jun-17 00:59N 29°38' W 094°19'2 3.6
2018-Jun-17 00:30N 29°37' W 094°21'3 4.0
2018-Jun-16 23:51N 29°36' W 094°23'1 2.7
2018-Jun-16 23:30N 29°36' W 094°24'2 2.7
2018-Jun-16 22:57N 29°34' W 094°25'1 1.5
2018-Jun-16 22:29N 29°34' W 094°25'0 0.0
2018-Jun-16 22:00N 29°34' W 094°25'0 0.0
2018-Jun-16 21:30N 29°34' W 094°25'0 0.1
2018-Jun-16 21:00N 29°34' W 094°26'20 4.3
2018-Jun-16 16:20N 29°24' W 094°46'1 4.3
2018-Jun-16 16:00N 29°23' W 094°47'2 4.6
2018-Jun-16 15:30N 29°22' W 094°49'2 3.3
2018-Jun-16 15:00N 29°22' W 094°51'2 3.7
2018-Jun-16 14:29N 29°22' W 094°53'0 0.5
2018-Jun-16 14:00N 29°22' W 094°53'0 0.7
2018-Jun-16 13:30N 29°22' W 094°54'0 0.2
2018-Jun-16 12:17N 29°22' W 094°53'0 0.0
2018-Jun-16 11:58N 29°22' W 094°53'0 0.0
2018-Jun-15 23:24N 29°22' W 094°53'0 0.0
2018-Jun-15 22:58N 29°22' W 094°53'0 0.0
2018-Jun-15 22:29N 29°22' W 094°53'0 0.0
2018-Jun-15 21:33N 29°22' W 094°53'0 0.0
2018-Jun-15 21:26N 29°22' W 094°53'0 0.0
2018-Jun-15 21:00N 29°22' W 094°53'0 0.0
2018-Jun-15 20:30N 29°22' W 094°53'0 0.0
2018-Jun-15 20:00N 29°22' W 094°53'0 0.0
2018-Jun-15 19:30N 29°22' W 094°53'0 0.0
2018-Jun-15 19:00N 29°22' W 094°53'0 0.0
2018-Jun-15 18:30N 29°22' W 094°53'0 0.0
2018-Jun-15 18:00N 29°22' W 094°53'0 0.0
2018-Jun-15 17:29N 29°22' W 094°53'0 0.0
2018-Jun-15 16:59N 29°22' W 094°53'0 0.0
2018-Jun-15 16:30N 29°22' W 094°53'1 2.4
2018-Jun-15 16:00N 29°23' W 094°52'0 0.1
2018-Jun-15 14:58N 29°23' W 094°52'1 3.0
2018-Jun-15 14:30N 29°22' W 094°54'1 2.8
2018-Jun-15 14:00N 29°23' W 094°52'0 0.5
2018-Jun-15 13:30N 29°23' W 094°52'0 0.0
2018-Jun-15 13:00N 29°23' W 094°52'0 0.0
2018-Jun-15 12:31N 29°23' W 094°52'0 0.0
2018-Jun-15 12:01N 29°23' W 094°52'0 0.0
2018-Jun-15 11:30N 29°23' W 094°52'0 0.0
2018-Jun-15 11:00N 29°23' W 094°52'0 0.0
2018-Jun-15 10:31N 29°23' W 094°52'0 0.0
2018-Jun-15 10:00N 29°23' W 094°52'0 0.0
2018-Jun-15 09:31N 29°23' W 094°52'0 0.0
2018-Jun-15 09:00N 29°23' W 094°52'0 0.0
2018-Jun-15 08:30N 29°23' W 094°52'0 0.0
2018-Jun-15 08:01N 29°23' W 094°52'0 0.0
2018-Jun-15 07:30N 29°23' W 094°52'0 0.0
2018-Jun-15 07:00N 29°23' W 094°52'0 0.0
2018-Jun-15 06:30N 29°23' W 094°52'0 0.0
2018-Jun-15 06:00N 29°23' W 094°52'0 0.0
2018-Jun-15 05:31N 29°23' W 094°52'0 0.0
2018-Jun-15 05:01N 29°23' W 094°52'0 0.0
2018-Jun-15 04:31N 29°23' W 094°52'0 0.0
2018-Jun-15 03:58N 29°23' W 094°52'0 0.0
2018-Jun-15 03:30N 29°23' W 094°52'0 0.0
2018-Jun-15 03:00N 29°23' W 094°52'0 0.0
2018-Jun-15 02:29N 29°23' W 094°52'0 0.0
2018-Jun-15 02:01N 29°23' W 094°52'0 0.0
2018-Jun-15 01:31N 29°23' W 094°52'0 0.0
2018-Jun-15 01:00N 29°23' W 094°52'0 0.0
2018-Jun-15 00:31N 29°23' W 094°52'0 0.0
2018-Jun-15 00:01N 29°23' W 094°52'0 0.0
2018-Jun-14 23:30N 29°23' W 094°52'0 0.0
2018-Jun-14 23:01N 29°23' W 094°52'0 0.0
2018-Jun-14 22:29N 29°23' W 094°52'0 0.0
2018-Jun-14 22:00N 29°23' W 094°52'0 0.0
2018-Jun-14 21:29N 29°23' W 094°52'0 0.0
2018-Jun-14 21:00N 29°23' W 094°52'0 0.0
2018-Jun-14 20:29N 29°23' W 094°52'0 0.0
2018-Jun-14 20:01N 29°23' W 094°52'0 0.0
2018-Jun-14 19:30N 29°23' W 094°52'0 0.0
2018-Jun-14 19:00N 29°23' W 094°52'0 0.0
2018-Jun-14 18:30N 29°23' W 094°52'0 0.0
2018-Jun-14 18:00N 29°23' W 094°52'0 0.0
2018-Jun-14 17:31N 29°23' W 094°52'0 0.0
2018-Jun-14 17:00N 29°23' W 094°52'0 0.0
2018-Jun-14 16:31N 29°23' W 094°52'0 0.0
2018-Jun-14 15:59N 29°23' W 094°52'0 0.6
2018-Jun-14 15:30N 29°23' W 094°52'1 2.7
2018-Jun-14 15:00N 29°22' W 094°54'0 0.0
2018-Jun-14 14:30N 29°22' W 094°54'0 0.0
2018-Jun-14 13:58N 29°22' W 094°54'1 3.0
2018-Jun-14 13:30N 29°23' W 094°52'0 0.0
2018-Jun-14 12:59N 29°23' W 094°52'0 0.0
2018-Jun-14 12:30N 29°23' W 094°52'0 0.0
2018-Jun-14 12:00N 29°23' W 094°52'0 0.0
2018-Jun-14 11:31N 29°23' W 094°52'0 0.0
2018-Jun-14 11:00N 29°23' W 094°52'0 0.0
2018-Jun-14 10:30N 29°23' W 094°52'0 0.0
2018-Jun-14 10:01N 29°23' W 094°52'0 0.0
2018-Jun-14 09:30N 29°23' W 094°52'0 0.0
2018-Jun-14 09:00N 29°23' W 094°52'0 0.0
2018-Jun-14 08:30N 29°23' W 094°52'0 0.0
2018-Jun-14 08:00N 29°23' W 094°52'0 0.0
2018-Jun-14 07:30N 29°23' W 094°52'0 0.0
2018-Jun-14 07:00N 29°23' W 094°52'1 2.3
2018-Jun-14 06:29N 29°22' W 094°53'0 0.3
2018-Jun-14 06:00N 29°22' W 094°53'1 1.7
2018-Jun-14 05:30N 29°23' W 094°52'0 0.7
2018-Jun-14 05:00N 29°23' W 094°52'0 0.0
2018-Jun-14 04:31N 29°23' W 094°52'0 0.0
2018-Jun-14 04:00N 29°23' W 094°52'0 0.0
2018-Jun-14 03:30N 29°23' W 094°52'0 0.0
2018-Jun-14 03:00N 29°23' W 094°52'0 0.0
2018-Jun-14 02:29N 29°23' W 094°52'0 0.0
2018-Jun-14 02:00N 29°23' W 094°52'0 0.0
2018-Jun-14 01:30N 29°23' W 094°52'0 0.0
2018-Jun-14 01:00N 29°23' W 094°52'0 0.2
2018-Jun-14 00:30N 29°23' W 094°52'0 0.0
2018-Jun-14 00:00N 29°23' W 094°52'0 0.1
2018-Jun-13 23:30N 29°23' W 094°52'0 0.1
2018-Jun-13 23:01N 29°23' W 094°52'0 0.0
2018-Jun-13 22:31N 29°23' W 094°52'0 0.0
2018-Jun-13 22:00N 29°23' W 094°52'0 0.0
2018-Jun-13 21:31N 29°23' W 094°52'0 0.0
2018-Jun-13 21:00N 29°23' W 094°52'0 0.0
2018-Jun-13 20:30N 29°23' W 094°52'0 0.0
2018-Jun-13 20:01N 29°23' W 094°52'0 0.0
2018-Jun-13 19:30N 29°23' W 094°52'0 0.0
2018-Jun-13 19:00N 29°23' W 094°52'0 0.0
2018-Jun-13 18:31N 29°23' W 094°52'0 0.0
2018-Jun-13 18:01N 29°23' W 094°52'0 0.0
2018-Jun-13 17:30N 29°23' W 094°52'0 0.0
2018-Jun-13 17:01N 29°23' W 094°52'0 0.0
2018-Jun-13 16:30N 29°23' W 094°52'0 0.0
2018-Jun-13 16:00N 29°23' W 094°52'0 0.0
2018-Jun-13 15:30N 29°23' W 094°52'0 0.0
2018-Jun-13 15:00N 29°23' W 094°52'0 0.0
2018-Jun-13 14:28N 29°23' W 094°52'1 1.9
2018-Jun-13 14:00N 29°23' W 094°53'1 1.7
2018-Jun-13 13:30N 29°22' W 094°53'0 0.0
2018-Jun-13 13:00N 29°22' W 094°53'0 0.0
2018-Jun-13 12:30N 29°22' W 094°53'0 0.7
2018-Jun-13 11:59N 29°22' W 094°53'1 2.0
2018-Jun-13 11:28N 29°23' W 094°52'0 0.0
2018-Jun-13 11:00N 29°23' W 094°52'0 0.0
2018-Jun-13 10:30N 29°23' W 094°52'0 0.0
2018-Jun-13 10:00N 29°23' W 094°52'0 0.0
2018-Jun-13 09:30N 29°23' W 094°52'0 0.0
2018-Jun-13 09:00N 29°23' W 094°52'0 0.0
2018-Jun-13 08:30N 29°23' W 094°52'0 0.0
2018-Jun-13 08:00N 29°23' W 094°52'0 0.0
2018-Jun-13 07:30N 29°23' W 094°52'0 0.0
2018-Jun-13 07:00N 29°23' W 094°52'0 0.0
2018-Jun-13 06:30N 29°23' W 094°52'0 0.0
2018-Jun-13 06:00N 29°23' W 094°52'0 0.0
2018-Jun-13 05:30N 29°23' W 094°52'0 0.0
2018-Jun-13 05:00N 29°23' W 094°52'0 0.0
2018-Jun-13 04:30N 29°23' W 094°52'0 0.0
2018-Jun-13 04:00N 29°23' W 094°52'0 0.0
2018-Jun-13 03:30N 29°23' W 094°52'0 0.0
2018-Jun-13 03:00N 29°23' W 094°52'0 0.0
2018-Jun-13 02:30N 29°23' W 094°52'0 0.0
2018-Jun-13 02:00N 29°23' W 094°52'0 0.0
2018-Jun-13 01:30N 29°23' W 094°52'0 0.0
2018-Jun-13 01:00N 29°23' W 094°52'0 0.8
2018-Jun-13 00:30N 29°23' W 094°52'3 5.5
2018-Jun-13 00:00N 29°22' W 094°49'3 4.6
2018-Jun-12 23:26N 29°23' W 094°46'0 0.1
2018-Jun-12 22:52N 29°23' W 094°46'0 0.0
2018-Jun-12 22:18N 29°23' W 094°46'0 0.0
2018-Jun-12 22:00N 29°23' W 094°46'0 0.0
2018-Jun-12 21:29N 29°23' W 094°46'0 0.0
2018-Jun-12 20:50N 29°23' W 094°46'0 0.0
2018-Jun-12 20:29N 29°23' W 094°46'0 0.0
2018-Jun-12 19:59N 29°23' W 094°46'0 0.0
2018-Jun-12 19:30N 29°23' W 094°46'0 0.0
2018-Jun-12 18:59N 29°23' W 094°46'0 0.0
2018-Jun-12 18:29N 29°23' W 094°46'0 0.0
2018-Jun-12 17:56N 29°23' W 094°46'0 0.0
2018-Jun-12 17:25N 29°23' W 094°46'0 0.0
2018-Jun-12 16:58N 29°23' W 094°46'0 0.0
2018-Jun-12 16:30N 29°23' W 094°46'0 0.0
2018-Jun-12 15:48N 29°23' W 094°46'0 0.0
2018-Jun-12 15:27N 29°23' W 094°46'0 0.0
2018-Jun-12 14:59N 29°23' W 094°46'0 0.0
2018-Jun-12 14:30N 29°23' W 094°46'0 0.0
2018-Jun-12 14:00N 29°23' W 094°46'0 0.0
2018-Jun-12 13:30N 29°23' W 094°46'0 0.0
2018-Jun-12 13:00N 29°23' W 094°46'0 0.0
2018-Jun-12 12:31N 29°23' W 094°46'0 0.0
2018-Jun-12 11:46N 29°23' W 094°46'0 0.0
2018-Jun-12 11:29N 29°23' W 094°46'0 0.0
2018-Jun-12 10:11N 29°23' W 094°46'0 0.0
2018-Jun-12 02:35N 29°23' W 094°46'0 0.0
2018-Jun-12 02:29N 29°23' W 094°46'0 0.0
2018-Jun-12 01:56N 29°23' W 094°46'0 0.0
2018-Jun-12 01:29N 29°23' W 094°46'0 0.0
2018-Jun-12 00:56N 29°23' W 094°46'0 0.0
2018-Jun-12 00:29N 29°23' W 094°46'0 0.0
2018-Jun-12 00:00N 29°23' W 094°46'0 0.0
2018-Jun-11 23:30N 29°23' W 094°46'0 0.0
2018-Jun-11 22:59N 29°23' W 094°46'0 0.0
2018-Jun-11 22:29N 29°23' W 094°46'0 0.0
2018-Jun-11 22:00N 29°23' W 094°46'0 0.0
2018-Jun-11 21:30N 29°23' W 094°46'0 0.0
2018-Jun-11 20:59N 29°23' W 094°46'0 0.0
2018-Jun-11 20:30N 29°23' W 094°46'0 0.0
2018-Jun-11 19:59N 29°23' W 094°46'0 0.0
2018-Jun-11 19:28N 29°23' W 094°46'0 0.0
2018-Jun-11 18:59N 29°23' W 094°46'0 0.0
2018-Jun-11 18:30N 29°23' W 094°46'0 0.0
2018-Jun-11 17:58N 29°23' W 094°46'0 0.0
2018-Jun-11 17:28N 29°23' W 094°46'0 0.0
2018-Jun-11 17:00N 29°23' W 094°46'0 0.0
2018-Jun-11 16:06N 29°23' W 094°46'0 0.0
2018-Jun-11 15:48N 29°23' W 094°46'0 0.0
2018-Jun-11 15:03N 29°23' W 094°46'0 0.0
2018-Jun-11 14:55N 29°23' W 094°46'0 0.0
2018-Jun-11 14:30N 29°23' W 094°46'0 0.0
2018-Jun-11 13:52N 29°23' W 094°46'0 0.0
2018-Jun-11 13:31N 29°23' W 094°46'0 0.0
2018-Jun-11 12:59N 29°23' W 094°46'0 0.0
2018-Jun-11 12:26N 29°23' W 094°46'0 0.0
2018-Jun-11 11:56N 29°23' W 094°46'0 0.0
2018-Jun-11 11:30N 29°23' W 094°46'0 0.0
2018-Jun-11 10:57N 29°23' W 094°46'0 0.0
2018-Jun-11 10:25N 29°23' W 094°46'0 0.0
2018-Jun-11 09:48N 29°23' W 094°46'0 0.0
2018-Jun-11 06:10N 29°23' W 094°46'0 0.0
2018-Jun-11 05:53N 29°23' W 094°46'0 0.0
2018-Jun-11 05:22N 29°23' W 094°46'0 0.0
2018-Jun-11 04:39N 29°23' W 094°46'0 0.0
2018-Jun-11 04:21N 29°23' W 094°46'0 0.0
2018-Jun-11 04:00N 29°23' W 094°46'0 0.0
2018-Jun-11 03:28N 29°23' W 094°46'0 0.0
2018-Jun-11 02:57N 29°23' W 094°46'0 0.0
2018-Jun-11 02:27N 29°23' W 094°46'0 0.0
2018-Jun-11 01:59N 29°23' W 094°46'0 0.0
2018-Jun-11 01:14N 29°23' W 094°46'0 0.0
2018-Jun-11 00:57N 29°23' W 094°46'0 0.0
2018-Jun-11 00:28N 29°23' W 094°46'0 0.0
2018-Jun-10 23:58N 29°23' W 094°46'0 0.0
2018-Jun-10 23:30N 29°23' W 094°46'0 0.0
2018-Jun-10 22:59N 29°23' W 094°46'0 0.0
2018-Jun-10 22:26N 29°23' W 094°46'0 0.0
2018-Jun-10 21:58N 29°23' W 094°46'0 0.0
2018-Jun-10 21:25N 29°23' W 094°46'0 0.0
2018-Jun-10 20:59N 29°23' W 094°46'0 0.0
2018-Jun-10 20:30N 29°23' W 094°46'0 0.0
2018-Jun-10 19:53N 29°23' W 094°46'0 0.0
2018-Jun-10 19:26N 29°23' W 094°46'0 0.0
2018-Jun-10 18:58N 29°23' W 094°46'0 0.0
2018-Jun-10 18:29N 29°23' W 094°46'0 0.0
2018-Jun-10 17:59N 29°23' W 094°46'1 1.4
2018-Jun-10 17:30N 29°24' W 094°46'4 5.3
2018-Jun-10 16:48N 29°26' W 094°42'14 4.1
2018-Jun-10 13:23N 29°33' W 094°28'2 4.9
2018-Jun-10 13:00N 29°34' W 094°27'0 0.6
2018-Jun-10 12:30N 29°34' W 094°26'0 0.0
2018-Jun-10 12:00N 29°34' W 094°26'1 2.1
2018-Jun-10 11:28N 29°34' W 094°25'2 3.9
2018-Jun-10 11:00N 29°36' W 094°24'0 0.6
2018-Jun-10 10:30N 29°36' W 094°24'0 0.1
2018-Jun-10 10:00N 29°36' W 094°24'2 3.3
2018-Jun-10 09:29N 29°36' W 094°22'3 5.3
2018-Jun-10 09:00N 29°38' W 094°19'0 0.0
2018-Jun-10 08:30N 29°38' W 094°19'2 3.4
2018-Jun-10 08:00N 29°38' W 094°18'3 5.1
2018-Jun-10 07:30N 29°40' W 094°15'2 3.3
2018-Jun-10 07:00N 29°40' W 094°13'1 2.3
2018-Jun-10 06:30N 29°41' W 094°12'1 2.9
2018-Jun-10 06:00N 29°41' W 094°10'2 4.2
2018-Jun-10 05:30N 29°42' W 094°08'1 2.4
2018-Jun-10 05:00N 29°43' W 094°07'2 4.0
2018-Jun-10 04:30N 29°44' W 094°05'2 3.8
2018-Jun-10 04:00N 29°45' W 094°04'  
Track history (hours):
 
Tides and Currents Weather Stations Pressure Air Temp Water Temp Dewpoint Dewpoint Depression Visibility Wind Speed Wind Dir Waves Ship Positions

Air Supply

Owner: Knowles, Clay A, Fruita, CO. More information available from US FCC via Universal Licensing System and Coast Guard Vessel Documentation Center.

Last reported at 2018-Jun-20 03:54 UTC. Time now 2018-Jun-20 08:57 UTC.
Position N 29°51' W 091°55'.

Length 36 m; draft 3 m.

Type: Towing. MMSI: 367375720.

Date/timePositionNaut miles runAvg speedWind from/ knotsBaromVisibWave heightAir tempDewpointWater temp
2018-Jun-20 03:54N 29°51' W 091°55'2 3.8
2018-Jun-20 03:30N 29°51' W 091°56'2 4.9
2018-Jun-20 03:00N 29°50' W 091°59'3 5.0
2018-Jun-20 02:31N 29°49' W 092°02'2 4.6
2018-Jun-20 02:01N 29°48' W 092°04'2 3.7
2018-Jun-20 01:31N 29°48' W 092°06'2 3.5
2018-Jun-20 01:01N 29°47' W 092°08'2 4.0
2018-Jun-20 00:30N 29°47' W 092°10'2 4.0
2018-Jun-20 00:01N 29°47' W 092°12'0 0.2
2018-Jun-19 23:31N 29°47' W 092°12'2 3.1
2018-Jun-19 23:00N 29°48' W 092°14'1 1.3
2018-Jun-19 22:30N 29°48' W 092°15'0 0.1
2018-Jun-19 22:00N 29°48' W 092°15'0 0.0
2018-Jun-19 21:31N 29°48' W 092°15'0 0.0
2018-Jun-19 21:01N 29°48' W 092°15'0 0.0
2018-Jun-19 20:31N 29°48' W 092°15'0 0.0
2018-Jun-19 20:00N 29°48' W 092°15'0 0.1
2018-Jun-19 19:30N 29°48' W 092°15'0 0.2
2018-Jun-19 18:59N 29°48' W 092°15'0 0.1
2018-Jun-19 18:30N 29°48' W 092°15'0 0.1
2018-Jun-19 18:01N 29°48' W 092°15'0 0.2
2018-Jun-19 17:31N 29°48' W 092°15'1 1.9
2018-Jun-19 17:00N 29°49' W 092°16'0 0.2
2018-Jun-19 16:30N 29°49' W 092°16'0 0.0
2018-Jun-19 16:00N 29°49' W 092°16'0 0.0
2018-Jun-19 15:30N 29°49' W 092°16'0 0.0
2018-Jun-19 15:00N 29°49' W 092°16'0 0.0
2018-Jun-19 14:30N 29°49' W 092°16'0 0.2
2018-Jun-19 14:00N 29°49' W 092°16'1 2.0
2018-Jun-19 13:30N 29°49' W 092°17'2 3.7
2018-Jun-19 13:00N 29°50' W 092°19'2 4.3
2018-Jun-19 12:30N 29°51' W 092°21'3 4.0
2018-Jun-19 11:49N 29°53' W 092°23'26 4.6
2018-Jun-19 06:14N 29°57' W 092°53'8 4.1
2018-Jun-19 04:20N 29°56' W 093°01'2 4.7
2018-Jun-19 04:00N 29°56' W 093°03'2 4.4
2018-Jun-19 03:30N 29°56' W 093°06'2 4.6
2018-Jun-19 03:00N 29°56' W 093°08'2 4.1
2018-Jun-19 02:30N 29°57' W 093°10'2 4.3
2018-Jun-19 02:00N 29°59' W 093°12'2 3.9
2018-Jun-19 01:30N 30°00' W 093°13'2 3.6
2018-Jun-19 01:00N 30°02' W 093°14'1 3.0
2018-Jun-19 00:30N 30°03' W 093°16'2 3.0
2018-Jun-19 00:00N 30°04' W 093°16'2 3.3
2018-Jun-18 23:30N 30°05' W 093°18'0 0.6
2018-Jun-18 23:00N 30°05' W 093°18'1 1.4
2018-Jun-18 22:30N 30°06' W 093°18'0 0.9
2018-Jun-18 22:00N 30°06' W 093°19'0 0.0
2018-Jun-18 21:27N 30°06' W 093°19'0 0.0
2018-Jun-18 21:00N 30°06' W 093°19'0 0.0
2018-Jun-18 20:30N 30°06' W 093°19'0 0.0
2018-Jun-18 20:00N 30°06' W 093°19'0 0.0
2018-Jun-18 19:30N 30°06' W 093°19'0 0.0
2018-Jun-18 19:00N 30°06' W 093°19'0 0.0
2018-Jun-18 18:30N 30°06' W 093°19'0 0.0
2018-Jun-18 18:00N 30°06' W 093°19'0 0.0
2018-Jun-18 17:30N 30°06' W 093°19'0 0.0
2018-Jun-18 16:59N 30°06' W 093°19'0 0.0
2018-Jun-18 16:30N 30°06' W 093°19'0 0.0
2018-Jun-18 16:00N 30°06' W 093°19'0 0.0
2018-Jun-18 15:31N 30°06' W 093°19'0 0.0
2018-Jun-18 15:00N 30°06' W 093°19'0 0.0
2018-Jun-18 14:30N 30°06' W 093°19'0 0.0
2018-Jun-18 14:00N 30°06' W 093°19'0 0.0
2018-Jun-18 13:30N 30°06' W 093°19'0 0.0
2018-Jun-18 13:00N 30°06' W 093°19'0 0.0
2018-Jun-18 12:30N 30°06' W 093°19'0 0.0
2018-Jun-18 12:01N 30°06' W 093°19'0 0.0
2018-Jun-18 11:30N 30°06' W 093°19'0 0.0
2018-Jun-18 11:00N 30°06' W 093°19'0 0.0
2018-Jun-18 10:30N 30°06' W 093°19'0 0.1
2018-Jun-18 10:00N 30°06' W 093°19'0 0.0
2018-Jun-18 09:30N 30°06' W 093°19'0 0.0
2018-Jun-18 09:00N 30°06' W 093°19'0 0.0
2018-Jun-18 08:28N 30°06' W 093°19'0 0.0
2018-Jun-18 08:00N 30°06' W 093°19'0 0.0
2018-Jun-18 07:30N 30°06' W 093°19'0 0.4
2018-Jun-18 07:00N 30°06' W 093°19'2 3.7
2018-Jun-18 06:30N 30°05' W 093°20'1 2.9
2018-Jun-18 06:00N 30°04' W 093°22'1 2.7
2018-Jun-18 05:30N 30°04' W 093°23'0 0.5
2018-Jun-18 05:01N 30°04' W 093°24'0 0.2
2018-Jun-18 04:30N 30°04' W 093°24'0 0.0
2018-Jun-18 04:00N 30°04' W 093°24'0 0.0
2018-Jun-18 03:30N 30°04' W 093°24'0 0.0
2018-Jun-18 03:00N 30°04' W 093°24'0 0.0
2018-Jun-18 02:30N 30°04' W 093°24'0 0.0
2018-Jun-18 01:59N 30°04' W 093°24'0 0.0
2018-Jun-18 01:30N 30°04' W 093°24'0 0.0
2018-Jun-18 01:00N 30°04' W 093°24'0 0.0
2018-Jun-18 00:30N 30°04' W 093°24'0 0.0
2018-Jun-17 23:58N 30°04' W 093°24'0 0.1
2018-Jun-17 23:30N 30°04' W 093°24'0 0.5
2018-Jun-17 23:00N 30°04' W 093°24'0 0.7
2018-Jun-17 22:30N 30°04' W 093°24'0 0.7
2018-Jun-17 22:01N 30°04' W 093°25'0 0.9
2018-Jun-17 21:30N 30°04' W 093°25'0 0.3
2018-Jun-17 21:00N 30°04' W 093°26'0 0.0
2018-Jun-17 20:31N 30°04' W 093°26'0 0.0
2018-Jun-17 20:00N 30°04' W 093°26'0 0.7
2018-Jun-17 19:30N 30°04' W 093°26'1 2.3
2018-Jun-17 19:00N 30°04' W 093°27'0 0.0
2018-Jun-17 18:30N 30°04' W 093°27'0 0.0
2018-Jun-17 18:00N 30°04' W 093°27'0 0.1
2018-Jun-17 17:30N 30°04' W 093°27'0 0.9
2018-Jun-17 17:00N 30°04' W 093°28'0 0.3
2018-Jun-17 16:30N 30°04' W 093°28'0 0.1
2018-Jun-17 16:00N 30°04' W 093°28'0 0.1
2018-Jun-17 15:30N 30°04' W 093°28'0 0.3
2018-Jun-17 15:00N 30°04' W 093°28'0 0.9
2018-Jun-17 14:30N 30°04' W 093°29'0 0.0
2018-Jun-17 14:00N 30°04' W 093°29'1 1.5
2018-Jun-17 13:29N 30°04' W 093°30'2 4.2
2018-Jun-17 13:00N 30°04' W 093°32'2 4.4
2018-Jun-17 12:27N 30°04' W 093°35'2 4.2
2018-Jun-17 12:00N 30°04' W 093°37'2 4.3
2018-Jun-17 11:29N 30°03' W 093°40'2 4.4
2018-Jun-17 11:00N 30°03' W 093°42'1 2.9
2018-Jun-17 10:30N 30°03' W 093°44'1 2.9
2018-Jun-17 10:00N 30°01' W 093°44'2 4.5
2018-Jun-17 09:30N 29°60' W 093°46'2 4.9
2018-Jun-17 09:00N 29°59' W 093°49'2 4.8
2018-Jun-17 08:30N 29°58' W 093°51'3 5.1
2018-Jun-17 08:00N 29°56' W 093°53'2 4.5
2018-Jun-17 07:30N 29°54' W 093°54'2 3.4
2018-Jun-17 07:00N 29°53' W 093°56'2 4.3
2018-Jun-17 06:30N 29°51' W 093°57'2 4.1
2018-Jun-17 06:00N 29°49' W 093°59'2 4.1
2018-Jun-17 05:30N 29°48' W 094°00'3 5.1
2018-Jun-17 05:00N 29°46' W 094°03'2 4.9
2018-Jun-17 04:30N 29°45' W 094°05'2 4.7
2018-Jun-17 04:00N 29°43' W 094°07'2 4.5
2018-Jun-17 03:30N 29°42' W 094°09'2 4.2
2018-Jun-17 03:00N 29°41' W 094°11'2 3.0
2018-Jun-17 02:30N 29°40' W 094°13'2 3.2
2018-Jun-17 02:00N 29°40' W 094°14'2 4.3
2018-Jun-17 01:30N 29°39' W 094°17'2 4.2
2018-Jun-17 00:59N 29°38' W 094°19'2 3.6
2018-Jun-17 00:30N 29°37' W 094°21'3 4.0
2018-Jun-16 23:51N 29°36' W 094°23'1 2.7
2018-Jun-16 23:30N 29°36' W 094°24'2 2.7
2018-Jun-16 22:57N 29°34' W 094°25'1 1.5
2018-Jun-16 22:29N 29°34' W 094°25'0 0.0
2018-Jun-16 22:00N 29°34' W 094°25'0 0.0
2018-Jun-16 21:30N 29°34' W 094°25'0 0.1
2018-Jun-16 21:00N 29°34' W 094°26'20 4.3
2018-Jun-16 16:20N 29°24' W 094°46'1 4.3
2018-Jun-16 16:00N 29°23' W 094°47'2 4.6
2018-Jun-16 15:30N 29°22' W 094°49'2 3.3
2018-Jun-16 15:00N 29°22' W 094°51'2 3.7
2018-Jun-16 14:29N 29°22' W 094°53'0 0.5
2018-Jun-16 14:00N 29°22' W 094°53'0 0.7
2018-Jun-16 13:30N 29°22' W 094°54'0 0.2
2018-Jun-16 12:17N 29°22' W 094°53'0 0.0
2018-Jun-16 11:58N 29°22' W 094°53'0 0.0
2018-Jun-15 23:24N 29°22' W 094°53'0 0.0
2018-Jun-15 22:58N 29°22' W 094°53'0 0.0
2018-Jun-15 22:29N 29°22' W 094°53'0 0.0
2018-Jun-15 21:33N 29°22' W 094°53'0 0.0
2018-Jun-15 21:26N 29°22' W 094°53'0 0.0
2018-Jun-15 21:00N 29°22' W 094°53'0 0.0
2018-Jun-15 20:30N 29°22' W 094°53'0 0.0
2018-Jun-15 20:00N 29°22' W 094°53'0 0.0
2018-Jun-15 19:30N 29°22' W 094°53'0 0.0
2018-Jun-15 19:00N 29°22' W 094°53'0 0.0
2018-Jun-15 18:30N 29°22' W 094°53'0 0.0
2018-Jun-15 18:00N 29°22' W 094°53'0 0.0
2018-Jun-15 17:29N 29°22' W 094°53'0 0.0
2018-Jun-15 16:59N 29°22' W 094°53'0 0.0
2018-Jun-15 16:30N 29°22' W 094°53'1 2.4
2018-Jun-15 16:00N 29°23' W 094°52'0 0.1
2018-Jun-15 14:58N 29°23' W 094°52'1 3.0
2018-Jun-15 14:30N 29°22' W 094°54'1 2.8
2018-Jun-15 14:00N 29°23' W 094°52'0 0.5
2018-Jun-15 13:30N 29°23' W 094°52'0 0.0
2018-Jun-15 13:00N 29°23' W 094°52'0 0.0
2018-Jun-15 12:31N 29°23' W 094°52'0 0.0
2018-Jun-15 12:01N 29°23' W 094°52'0 0.0
2018-Jun-15 11:30N 29°23' W 094°52'0 0.0
2018-Jun-15 11:00N 29°23' W 094°52'0 0.0
2018-Jun-15 10:31N 29°23' W 094°52'0 0.0
2018-Jun-15 10:00N 29°23' W 094°52'0 0.0
2018-Jun-15 09:31N 29°23' W 094°52'0 0.0
2018-Jun-15 09:00N 29°23' W 094°52'0 0.0
2018-Jun-15 08:30N 29°23' W 094°52'0 0.0
2018-Jun-15 08:01N 29°23' W 094°52'0 0.0
2018-Jun-15 07:30N 29°23' W 094°52'0 0.0
2018-Jun-15 07:00N 29°23' W 094°52'0 0.0
2018-Jun-15 06:30N 29°23' W 094°52'0 0.0
2018-Jun-15 06:00N 29°23' W 094°52'0 0.0
2018-Jun-15 05:31N 29°23' W 094°52'0 0.0
2018-Jun-15 05:01N 29°23' W 094°52'0 0.0
2018-Jun-15 04:31N 29°23' W 094°52'0 0.0
2018-Jun-15 03:58N 29°23' W 094°52'0 0.0
2018-Jun-15 03:30N 29°23' W 094°52'0 0.0
2018-Jun-15 03:00N 29°23' W 094°52'0 0.0
2018-Jun-15 02:29N 29°23' W 094°52'0 0.0
2018-Jun-15 02:01N 29°23' W 094°52'0 0.0
2018-Jun-15 01:31N 29°23' W 094°52'0 0.0
2018-Jun-15 01:00N 29°23' W 094°52'0 0.0
2018-Jun-15 00:31N 29°23' W 094°52'0 0.0
2018-Jun-15 00:01N 29°23' W 094°52'0 0.0
2018-Jun-14 23:30N 29°23' W 094°52'0 0.0
2018-Jun-14 23:01N 29°23' W 094°52'0 0.0
2018-Jun-14 22:29N 29°23' W 094°52'0 0.0
2018-Jun-14 22:00N 29°23' W 094°52'0 0.0
2018-Jun-14 21:29N 29°23' W 094°52'0 0.0
2018-Jun-14 21:00N 29°23' W 094°52'0 0.0
2018-Jun-14 20:29N 29°23' W 094°52'0 0.0
2018-Jun-14 20:01N 29°23' W 094°52'0 0.0
2018-Jun-14 19:30N 29°23' W 094°52'0 0.0
2018-Jun-14 19:00N 29°23' W 094°52'0 0.0
2018-Jun-14 18:30N 29°23' W 094°52'0 0.0
2018-Jun-14 18:00N 29°23' W 094°52'0 0.0
2018-Jun-14 17:31N 29°23' W 094°52'0 0.0
2018-Jun-14 17:00N 29°23' W 094°52'0 0.0
2018-Jun-14 16:31N 29°23' W 094°52'0 0.0
2018-Jun-14 15:59N 29°23' W 094°52'0 0.6
2018-Jun-14 15:30N 29°23' W 094°52'1 2.7
2018-Jun-14 15:00N 29°22' W 094°54'0 0.0
2018-Jun-14 14:30N 29°22' W 094°54'0 0.0
2018-Jun-14 13:58N 29°22' W 094°54'1 3.0
2018-Jun-14 13:30N 29°23' W 094°52'0 0.0
2018-Jun-14 12:59N 29°23' W 094°52'0 0.0
2018-Jun-14 12:30N 29°23' W 094°52'0 0.0
2018-Jun-14 12:00N 29°23' W 094°52'0 0.0
2018-Jun-14 11:31N 29°23' W 094°52'0 0.0
2018-Jun-14 11:00N 29°23' W 094°52'0 0.0
2018-Jun-14 10:30N 29°23' W 094°52'0 0.0
2018-Jun-14 10:01N 29°23' W 094°52'0 0.0
2018-Jun-14 09:30N 29°23' W 094°52'0 0.0
2018-Jun-14 09:00N 29°23' W 094°52'0 0.0
2018-Jun-14 08:30N 29°23' W 094°52'0 0.0
2018-Jun-14 08:00N 29°23' W 094°52'0 0.0
2018-Jun-14 07:30N 29°23' W 094°52'0 0.0
2018-Jun-14 07:00N 29°23' W 094°52'1 2.3
2018-Jun-14 06:29N 29°22' W 094°53'0 0.3
2018-Jun-14 06:00N 29°22' W 094°53'1 1.7
2018-Jun-14 05:30N 29°23' W 094°52'0 0.7
2018-Jun-14 05:00N 29°23' W 094°52'0 0.0
2018-Jun-14 04:31N 29°23' W 094°52'0 0.0
2018-Jun-14 04:00N 29°23' W 094°52'0 0.0
2018-Jun-14 03:30N 29°23' W 094°52'0 0.0
2018-Jun-14 03:00N 29°23' W 094°52'0 0.0
2018-Jun-14 02:29N 29°23' W 094°52'0 0.0
2018-Jun-14 02:00N 29°23' W 094°52'0 0.0
2018-Jun-14 01:30N 29°23' W 094°52'0 0.0
2018-Jun-14 01:00N 29°23' W 094°52'0 0.2
2018-Jun-14 00:30N 29°23' W 094°52'0 0.0
2018-Jun-14 00:00N 29°23' W 094°52'0 0.1
2018-Jun-13 23:30N 29°23' W 094°52'0 0.1
2018-Jun-13 23:01N 29°23' W 094°52'0 0.0
2018-Jun-13 22:31N 29°23' W 094°52'0 0.0
2018-Jun-13 22:00N 29°23' W 094°52'0 0.0
2018-Jun-13 21:31N 29°23' W 094°52'0 0.0
2018-Jun-13 21:00N 29°23' W 094°52'0 0.0
2018-Jun-13 20:30N 29°23' W 094°52'0 0.0
2018-Jun-13 20:01N 29°23' W 094°52'0 0.0
2018-Jun-13 19:30N 29°23' W 094°52'0 0.0
2018-Jun-13 19:00N 29°23' W 094°52'0 0.0
2018-Jun-13 18:31N 29°23' W 094°52'0 0.0
2018-Jun-13 18:01N 29°23' W 094°52'0 0.0
2018-Jun-13 17:30N 29°23' W 094°52'0 0.0
2018-Jun-13 17:01N 29°23' W 094°52'0 0.0
2018-Jun-13 16:30N 29°23' W 094°52'0 0.0
2018-Jun-13 16:00N 29°23' W 094°52'0 0.0
2018-Jun-13 15:30N 29°23' W 094°52'0 0.0
2018-Jun-13 15:00N 29°23' W 094°52'0 0.0
2018-Jun-13 14:28N 29°23' W 094°52'1 1.9
2018-Jun-13 14:00N 29°23' W 094°53'1 1.7
2018-Jun-13 13:30N 29°22' W 094°53'0 0.0
2018-Jun-13 13:00N 29°22' W 094°53'0 0.0
2018-Jun-13 12:30N 29°22' W 094°53'0 0.7
2018-Jun-13 11:59N 29°22' W 094°53'1 2.0
2018-Jun-13 11:28N 29°23' W 094°52'0 0.0
2018-Jun-13 11:00N 29°23' W 094°52'0 0.0
2018-Jun-13 10:30N 29°23' W 094°52'0 0.0
2018-Jun-13 10:00N 29°23' W 094°52'0 0.0
2018-Jun-13 09:30N 29°23' W 094°52'0 0.0
2018-Jun-13 09:00N 29°23' W 094°52'0 0.0
2018-Jun-13 08:30N 29°23' W 094°52'0 0.0
2018-Jun-13 08:00N 29°23' W 094°52'0 0.0
2018-Jun-13 07:30N 29°23' W 094°52'0 0.0
2018-Jun-13 07:00N 29°23' W 094°52'0 0.0
2018-Jun-13 06:30N 29°23' W 094°52'0 0.0
2018-Jun-13 06:00N 29°23' W 094°52'0 0.0
2018-Jun-13 05:30N 29°23' W 094°52'0 0.0
2018-Jun-13 05:00N 29°23' W 094°52'0 0.0
2018-Jun-13 04:30N 29°23' W 094°52'0 0.0
2018-Jun-13 04:00N 29°23' W 094°52'0 0.0
2018-Jun-13 03:30N 29°23' W 094°52'0 0.0
2018-Jun-13 03:00N 29°23' W 094°52'0 0.0
2018-Jun-13 02:30N 29°23' W 094°52'0 0.0
2018-Jun-13 02:00N 29°23' W 094°52'0 0.0
2018-Jun-13 01:30N 29°23' W 094°52'0 0.0
2018-Jun-13 01:00N 29°23' W 094°52'0 0.8
2018-Jun-13 00:30N 29°23' W 094°52'3 5.5
2018-Jun-13 00:00N 29°22' W 094°49'3 4.6
2018-Jun-12 23:26N 29°23' W 094°46'0 0.1
2018-Jun-12 22:52N 29°23' W 094°46'0 0.0
2018-Jun-12 22:18N 29°23' W 094°46'0 0.0
2018-Jun-12 22:00N 29°23' W 094°46'0 0.0
2018-Jun-12 21:29N 29°23' W 094°46'0 0.0
2018-Jun-12 20:50N 29°23' W 094°46'0 0.0
2018-Jun-12 20:29N 29°23' W 094°46'0 0.0
2018-Jun-12 19:59N 29°23' W 094°46'0 0.0
2018-Jun-12 19:30N 29°23' W 094°46'0 0.0
2018-Jun-12 18:59N 29°23' W 094°46'0 0.0
2018-Jun-12 18:29N 29°23' W 094°46'0 0.0
2018-Jun-12 17:56N 29°23' W 094°46'0 0.0
2018-Jun-12 17:25N 29°23' W 094°46'0 0.0
2018-Jun-12 16:58N 29°23' W 094°46'0 0.0
2018-Jun-12 16:30N 29°23' W 094°46'0 0.0
2018-Jun-12 15:48N 29°23' W 094°46'0 0.0
2018-Jun-12 15:27N 29°23' W 094°46'0 0.0
2018-Jun-12 14:59N 29°23' W 094°46'0 0.0
2018-Jun-12 14:30N 29°23' W 094°46'0 0.0
2018-Jun-12 14:00N 29°23' W 094°46'0 0.0
2018-Jun-12 13:30N 29°23' W 094°46'0 0.0
2018-Jun-12 13:00N 29°23' W 094°46'0 0.0
2018-Jun-12 12:31N 29°23' W 094°46'0 0.0
2018-Jun-12 11:46N 29°23' W 094°46'0 0.0
2018-Jun-12 11:29N 29°23' W 094°46'0 0.0
2018-Jun-12 10:11N 29°23' W 094°46'0 0.0
2018-Jun-12 02:35N 29°23' W 094°46'0 0.0
2018-Jun-12 02:29N 29°23' W 094°46'0 0.0
2018-Jun-12 01:56N 29°23' W 094°46'0 0.0
2018-Jun-12 01:29N 29°23' W 094°46'0 0.0
2018-Jun-12 00:56N 29°23' W 094°46'0 0.0
2018-Jun-12 00:29N 29°23' W 094°46'0 0.0
2018-Jun-12 00:00N 29°23' W 094°46'0 0.0
2018-Jun-11 23:30N 29°23' W 094°46'0 0.0
2018-Jun-11 22:59N 29°23' W 094°46'0 0.0
2018-Jun-11 22:29N 29°23' W 094°46'0 0.0
2018-Jun-11 22:00N 29°23' W 094°46'0 0.0
2018-Jun-11 21:30N 29°23' W 094°46'0 0.0
2018-Jun-11 20:59N 29°23' W 094°46'0 0.0
2018-Jun-11 20:30N 29°23' W 094°46'0 0.0
2018-Jun-11 19:59N 29°23' W 094°46'0 0.0
2018-Jun-11 19:28N 29°23' W 094°46'0 0.0
2018-Jun-11 18:59N 29°23' W 094°46'0 0.0
2018-Jun-11 18:30N 29°23' W 094°46'0 0.0
2018-Jun-11 17:58N 29°23' W 094°46'0 0.0
2018-Jun-11 17:28N 29°23' W 094°46'0 0.0
2018-Jun-11 17:00N 29°23' W 094°46'0 0.0
2018-Jun-11 16:06N 29°23' W 094°46'0 0.0
2018-Jun-11 15:48N 29°23' W 094°46'0 0.0
2018-Jun-11 15:03N 29°23' W 094°46'0 0.0
2018-Jun-11 14:55N 29°23' W 094°46'0 0.0
2018-Jun-11 14:30N 29°23' W 094°46'0 0.0
2018-Jun-11 13:52N 29°23' W 094°46'0 0.0
2018-Jun-11 13:31N 29°23' W 094°46'0 0.0
2018-Jun-11 12:59N 29°23' W 094°46'0 0.0
2018-Jun-11 12:26N 29°23' W 094°46'0 0.0
2018-Jun-11 11:56N 29°23' W 094°46'0 0.0
2018-Jun-11 11:30N 29°23' W 094°46'0 0.0
2018-Jun-11 10:57N 29°23' W 094°46'0 0.0
2018-Jun-11 10:25N 29°23' W 094°46'0 0.0
2018-Jun-11 09:48N 29°23' W 094°46'0 0.0
2018-Jun-11 06:10N 29°23' W 094°46'0 0.0
2018-Jun-11 05:53N 29°23' W 094°46'0 0.0
2018-Jun-11 05:22N 29°23' W 094°46'0 0.0
2018-Jun-11 04:39N 29°23' W 094°46'0 0.0
2018-Jun-11 04:21N 29°23' W 094°46'0 0.0
2018-Jun-11 04:00N 29°23' W 094°46'0 0.0
2018-Jun-11 03:28N 29°23' W 094°46'0 0.0
2018-Jun-11 02:57N 29°23' W 094°46'0 0.0
2018-Jun-11 02:27N 29°23' W 094°46'0 0.0
2018-Jun-11 01:59N 29°23' W 094°46'0 0.0
2018-Jun-11 01:14N 29°23' W 094°46'0 0.0
2018-Jun-11 00:57N 29°23' W 094°46'0 0.0
2018-Jun-11 00:28N 29°23' W 094°46'0 0.0
2018-Jun-10 23:58N 29°23' W 094°46'0 0.0
2018-Jun-10 23:30N 29°23' W 094°46'0 0.0
2018-Jun-10 22:59N 29°23' W 094°46'0 0.0
2018-Jun-10 22:26N 29°23' W 094°46'0 0.0
2018-Jun-10 21:58N 29°23' W 094°46'0 0.0
2018-Jun-10 21:25N 29°23' W 094°46'0 0.0
2018-Jun-10 20:59N 29°23' W 094°46'0 0.0
2018-Jun-10 20:30N 29°23' W 094°46'0 0.0
2018-Jun-10 19:53N 29°23' W 094°46'0 0.0
2018-Jun-10 19:26N 29°23' W 094°46'0 0.0
2018-Jun-10 18:58N 29°23' W 094°46'0 0.0
2018-Jun-10 18:29N 29°23' W 094°46'0 0.0
2018-Jun-10 17:59N 29°23' W 094°46'1 1.4
2018-Jun-10 17:30N 29°24' W 094°46'4 5.3
2018-Jun-10 16:48N 29°26' W 094°42'14 4.1
2018-Jun-10 13:23N 29°33' W 094°28'2 4.9
2018-Jun-10 13:00N 29°34' W 094°27'0 0.6
2018-Jun-10 12:30N 29°34' W 094°26'0 0.0
2018-Jun-10 12:00N 29°34' W 094°26'1 2.1
2018-Jun-10 11:28N 29°34' W 094°25'2 3.9
2018-Jun-10 11:00N 29°36' W 094°24'0 0.6
2018-Jun-10 10:30N 29°36' W 094°24'0 0.1
2018-Jun-10 10:00N 29°36' W 094°24'2 3.3
2018-Jun-10 09:29N 29°36' W 094°22'3 5.3
2018-Jun-10 09:00N 29°38' W 094°19'0 0.0
2018-Jun-10 08:30N 29°38' W 094°19'2 3.4
2018-Jun-10 08:00N 29°38' W 094°18'3 5.1
2018-Jun-10 07:30N 29°40' W 094°15'2 3.3
2018-Jun-10 07:00N 29°40' W 094°13'1 2.3
2018-Jun-10 06:30N 29°41' W 094°12'1 2.9
2018-Jun-10 06:00N 29°41' W 094°10'2 4.2
2018-Jun-10 05:30N 29°42' W 094°08'1 2.4
2018-Jun-10 05:00N 29°43' W 094°07'2 4.0
2018-Jun-10 04:30N 29°44' W 094°05'2 3.8
2018-Jun-10 04:00N 29°45' W 094°04'  

Dump ship's entire track history